Wyomissing Hills, Pennsylvania
Current Conditions -  °F | °C
As of 4:54 PM on Saturday 25 Oct 2014 (Local Time) from KRDG Reporting Station
Clear Clear  
Wind Chill: 68°   Ceiling: Unl
Heat Index: 68°   Visibility: 10mi
Dew Point: 43°   Wind: 10mph
Humidity: 40%   Direction: 230°SW
Pressure: 29.7"   Gusts: NA
Location:  40.3275°N, 75.9966°W
Report Text: KRDG 252054Z AUTO 23009KT 10SM CLR 20/06 A2970 RMK AO2 SLP060 T02000061 56025
Loading
Personal Weather Stations






























Interactive Weather Map
Tropical Storm Tracking
New forecast layout! Learn more

10-Day Weather Forecast

Advertisements
Track Severe Weather on mobile